Time;durP1;ratioP1;P1;durP2;ratioP2;P2;SDS_P1;SDS_P2;PMS_P1;PMS_P2;Temp;Humidity;BMP_temperature;BMP_pressure;BME280_temperature;BME280_humidity;BME280_pressure;Samples;Min_cycle;Max_cycle;Signal;HPM_P1;HPM_P2
2021/05/29 00:01:48;;;;;;;19.23;10.10;;;;;;;12.79;90.61;101786.56;5011583;28;20041;-72
2021/05/29 00:04:13;;;;;;;18.55;9.60;;;;;;;12.74;89.77;101777.91;5012063;28;20044;-72
2021/05/29 00:06:39;;;;;;;19.45;11.13;;;;;;;12.69;91.20;101790.53;5003897;28;20062;-72
2021/05/29 00:09:06;;;;;;;15.90;10.75;;;;;;;12.83;89.60;101786.66;5013663;28;20034;-72
2021/05/29 00:11:32;;;;;;;20.85;11.75;;;;;;;12.90;89.45;101779.53;5007799;28;20034;-73
2021/05/29 00:13:57;;;;;;;20.67;12.38;;;;;;;12.73;88.86;101777.09;5012444;28;20037;-72
2021/05/29 00:16:23;;;;;;;20.88;12.98;;;;;;;12.94;88.47;101768.81;5010761;28;20034;-72
2021/05/29 00:18:48;;;;;;;21.85;13.70;;;;;;;12.98;87.86;101769.72;5011089;28;20513;-72
2021/05/29 00:21:14;;;;;;;19.98;13.02;;;;;;;12.91;87.85;101781.09;5006982;28;20091;-71
2021/05/29 00:23:39;;;;;;;23.60;13.20;;;;;;;12.74;89.94;101778.66;5013699;28;20022;-72
2021/05/29 00:26:08;;;;;;;24.23;14.25;;;;;;;12.88;88.46;101787.22;5011299;28;20109;-72
2021/05/29 00:28:35;;;;;;;25.65;13.52;;;;;;;12.62;89.54;101792.19;5011036;28;20406;-72
2021/05/29 00:31:00;;;;;;;23.15;14.20;;;;;;;12.69;89.43;101795.94;5011932;28;20714;-72
2021/05/29 00:33:26;;;;;;;24.63;13.40;;;;;;;12.68;89.64;101799.75;5010978;28;20080;-72
2021/05/29 00:35:52;;;;;;;23.23;13.85;;;;;;;12.85;88.27;101787.09;5010699;28;20025;-72
2021/05/29 00:38:17;;;;;;;22.05;13.20;;;;;;;12.63;89.24;101788.38;5010762;28;20465;-72
2021/05/29 00:40:43;;;;;;;22.58;13.55;;;;;;;12.55;89.46;101789.28;4992105;28;20035;-72
2021/05/29 00:43:08;;;;;;;21.98;13.10;;;;;;;12.40;91.12;101795.38;5010443;28;20490;-72
2021/05/29 00:45:34;;;;;;;21.70;12.48;;;;;;;12.50;91.00;101798.41;5008556;28;20033;-72
2021/05/29 00:48:00;;;;;;;23.02;12.68;;;;;;;12.51;90.50;101807.31;5011724;28;20030;-70
2021/05/29 00:50:26;;;;;;;20.77;12.20;;;;;;;12.28;91.56;101795.38;5006834;28;20026;-71
2021/05/29 00:52:52;;;;;;;22.00;12.52;;;;;;;12.29;91.78;101803.13;5016824;28;20092;-71
2021/05/29 00:55:17;;;;;;;19.75;11.50;;;;;;;12.38;91.25;101817.34;5010050;28;20076;-71
2021/05/29 00:57:47;;;;;;;20.42;11.50;;;;;;;12.40;91.31;101815.09;4996400;28;20030;-71
2021/05/29 01:00:14;;;;;;;19.27;11.43;;;;;;;12.19;92.28;101805.50;5008442;28;20029;-70
2021/05/29 01:02:39;;;;;;;17.42;11.07;;;;;;;12.32;91.21;101809.78;5013386;28;20030;-71
2021/05/29 01:05:08;;;;;;;21.00;11.18;;;;;;;12.43;90.47;101811.69;5016991;28;20512;-71
2021/05/29 01:07:34;;;;;;;19.90;10.35;;;;;;;12.51;89.76;101802.69;5013567;28;20053;-71
2021/05/29 01:10:01;;;;;;;22.73;11.02;;;;;;;12.60;89.24;101816.88;5009921;28;20076;-71
2021/05/29 01:12:26;;;;;;;21.70;10.90;;;;;;;12.52;90.11;101817.75;5013010;28;20083;-71
2021/05/29 01:14:55;;;;;;;18.67;11.00;;;;;;;12.34;91.33;101813.75;5011842;28;20506;-71
2021/05/29 01:17:21;;;;;;;20.05;10.95;;;;;;;12.22;93.20;101811.03;5010040;28;20042;-71
2021/05/29 01:19:48;;;;;;;20.58;11.48;;;;;;;12.16;93.35;101804.25;5006495;28;20551;-71
2021/05/29 01:22:13;;;;;;;20.73;11.15;;;;;;;12.14;92.80;101803.81;5013690;28;20394;-71
2021/05/29 01:24:40;;;;;;;22.95;10.82;;;;;;;12.37;91.65;101814.94;5012951;28;20042;-71
2021/05/29 01:27:06;;;;;;;17.95;10.75;;;;;;;12.39;91.10;101813.50;5010061;28;20037;-71
2021/05/29 01:29:33;;;;;;;21.15;10.57;;;;;;;12.52;90.28;101812.38;5007080;28;20034;-71
2021/05/29 01:32:02;;;;;;;23.67;11.20;;;;;;;12.50;90.58;101820.03;5017497;28;20221;-71
2021/05/29 01:34:34;;;;;;;21.15;11.57;;;;;;;12.41;91.65;101811.25;5009715;28;20038;-71
2021/05/29 01:37:04;;;;;;;21.65;11.00;;;;;;;12.31;91.50;101809.00;5010372;28;20109;-71
2021/05/29 01:39:31;;;;;;;23.95;11.77;;;;;;;12.16;92.23;101808.88;5004803;28;20026;-71
2021/05/29 01:41:58;;;;;;;21.27;11.43;;;;;;;12.24;92.92;101819.56;5019524;28;20398;-71
2021/05/29 01:44:24;;;;;;;21.90;11.20;;;;;;;12.07;93.54;101819.78;5010213;28;20025;-71
2021/05/29 01:46:51;;;;;;;23.08;11.88;;;;;;;12.16;93.31;101825.88;5009175;28;20042;-71
2021/05/29 01:49:18;;;;;;;19.95;10.93;;;;;;;12.35;92.29;101820.69;5014767;28;20034;-70
2021/05/29 01:51:43;;;;;;;23.50;11.15;;;;;;;12.16;92.79;101825.88;5011020;28;20092;-71
2021/05/29 01:54:10;;;;;;;19.55;10.48;;;;;;;12.25;92.71;101837.34;5010203;28;20037;-71
2021/05/29 01:56:35;;;;;;;22.23;11.30;;;;;;;12.21;92.29;101833.78;5002471;28;20034;-71
2021/05/29 01:59:01;;;;;;;16.92;10.02;;;;;;;12.11;92.47;101828.00;5010938;28;20038;-71
2021/05/29 02:01:26;;;;;;;19.80;10.68;;;;;;;12.02;93.44;101838.88;5016074;28;20058;-71
2021/05/29 02:03:52;;;;;;;17.27;9.90;;;;;;;12.05;93.80;101824.75;5009191;28;20425;-71
2021/05/29 02:06:18;;;;;;;18.67;9.77;;;;;;;12.15;93.15;101832.41;5006126;28;20119;-71
2021/05/29 02:08:44;;;;;;;19.52;8.70;;;;;;;12.05;93.27;101840.13;5010596;28;20581;-71
2021/05/29 02:11:09;;;;;;;13.80;7.70;;;;;;;12.05;93.61;101838.25;5009801;28;20030;-71
2021/05/29 02:13:37;;;;;;;14.55;8.30;;;;;;;11.98;94.21;101846.06;5013700;28;20157;-71
2021/05/29 02:16:10;;;;;;;16.40;7.75;;;;;;;12.00;94.50;101833.03;5004110;28;20025;-71
2021/05/29 02:18:37;;;;;;;19.20;8.45;;;;;;;11.95;94.58;101841.38;5012657;28;20025;-71
2021/05/29 02:21:06;;;;;;;17.27;8.70;;;;;;;11.92;94.65;101835.84;5018362;28;20041;-71
2021/05/29 02:23:46;;;;;;;16.55;8.35;;;;;;;12.00;94.81;101834.97;5022310;28;20030;-71
2021/05/29 02:26:14;;;;;;;23.80;9.10;;;;;;;12.01;94.33;101831.94;5012799;28;20558;-71
2021/05/29 02:28:43;;;;;;;17.00;8.68;;;;;;;11.97;95.66;101822.13;5009037;28;20061;-72
2021/05/29 02:31:10;;;;;;;15.73;7.78;;;;;;;11.92;96.51;101817.75;5024035;28;20025;-71
2021/05/29 02:33:36;;;;;;;16.85;8.52;;;;;;;11.84;96.43;101829.44;5010252;28;20061;-71
2021/05/29 02:36:03;;;;;;;19.75;8.02;;;;;;;11.75;96.39;101823.31;5008625;28;20037;-71
2021/05/29 02:38:30;;;;;;;15.75;8.00;;;;;;;11.90;95.07;101830.78;5009074;28;20112;-71
2021/05/29 02:40:56;;;;;;;18.42;8.10;;;;;;;11.74;95.71;101824.44;5013468;28;20045;-71
2021/05/29 02:43:22;;;;;;;16.17;8.27;;;;;;;11.86;95.56;101824.47;5012549;28;20048;-71
2021/05/29 02:45:48;;;;;;;18.27;8.82;;;;;;;11.98;95.64;101823.72;5009733;28;20565;-71
2021/05/29 02:48:14;;;;;;;18.35;8.93;;;;;;;11.90;94.70;101825.41;5023595;28;20041;-71
2021/05/29 02:50:42;;;;;;;15.65;9.15;;;;;;;12.00;94.47;101829.56;5014073;28;20100;-71
2021/05/29 02:53:09;;;;;;;19.70;10.02;;;;;;;11.92;94.57;101827.75;5011089;28;20391;-71
2021/05/29 02:55:35;;;;;;;18.45;9.00;;;;;;;11.91;94.88;101835.06;5005405;28;20403;-71
2021/05/29 02:58:01;;;;;;;17.08;9.10;;;;;;;11.99;94.75;101831.47;5011641;28;20033;-71
2021/05/29 03:00:30;;;;;;;20.65;9.75;;;;;;;11.90;94.91;101828.09;5011747;28;20030;-71
2021/05/29 03:02:57;;;;;;;17.10;9.10;;;;;;;11.99;94.84;101825.28;5012353;28;20064;-71
2021/05/29 03:05:23;;;;;;;17.30;9.43;;;;;;;11.79;95.24;101837.72;5007978;28;20037;-71
2021/05/29 03:07:51;;;;;;;20.95;9.70;;;;;;;11.79;95.25;101822.31;5013052;28;20049;-71
2021/05/29 03:10:21;;;;;;;19.08;9.00;;;;;;;11.97;94.43;101828.31;5017879;28;20038;-71
2021/05/29 03:12:47;;;;;;;18.75;9.27;;;;;;;11.90;95.25;101825.41;5006337;28;20526;-71
2021/05/29 03:15:18;;;;;;;17.45;8.73;;;;;;;11.94;94.52;101837.09;5005697;28;20030;-71
2021/05/29 03:17:43;;;;;;;16.95;8.40;;;;;;;12.14;93.76;101841.63;5012436;28;20036;-71
2021/05/29 03:20:12;;;;;;;15.68;8.30;;;;;;;12.05;93.43;101835.53;5011492;28;20460;-71
2021/05/29 03:22:38;;;;;;;19.80;8.85;;;;;;;12.09;93.18;101828.34;5014401;28;20383;-71
2021/05/29 03:25:06;;;;;;;17.63;8.95;;;;;;;12.24;92.21;101843.09;5000400;28;20041;-71
2021/05/29 03:27:32;;;;;;;15.65;8.10;;;;;;;12.00;93.54;101849.22;5011271;28;20030;-71
2021/05/29 03:29:57;;;;;;;17.58;8.18;;;;;;;11.82;94.91;101847.06;4990526;28;20489;-71
2021/05/29 03:32:23;;;;;;;14.88;7.65;;;;;;;11.88;94.75;101841.13;5021961;28;20021;-71
2021/05/29 03:34:48;;;;;;;17.75;7.40;;;;;;;11.72;96.20;101856.38;5014720;28;20572;-71
2021/05/29 03:37:14;;;;;;;18.60;7.53;;;;;;;11.72;96.78;101849.06;5011446;28;20096;-71
2021/05/29 03:39:39;;;;;;;14.30;6.45;;;;;;;11.78;96.27;101855.84;5015688;28;20572;-71
2021/05/29 03:42:06;;;;;;;13.57;6.70;;;;;;;11.85;95.80;101849.88;5007328;28;20146;-71
2021/05/29 03:44:31;;;;;;;15.32;7.10;;;;;;;12.02;94.79;101857.03;5020551;23;20425;-75
2021/05/29 03:46:57;;;;;;;9.43;5.82;;;;;;;11.89;94.81;101858.88;5010592;28;20033;-73
2021/05/29 03:49:22;;;;;;;17.30;6.85;;;;;;;11.70;95.96;101854.00;5009359;28;20133;-75
2021/05/29 03:51:48;;;;;;;11.95;6.97;;;;;;;11.85;95.82;101849.88;5012338;28;20791;-74
2021/05/29 03:54:13;;;;;;;12.50;6.40;;;;;;;11.98;94.89;101851.47;5012515;28;20501;-74
2021/05/29 03:56:39;;;;;;;13.75;6.53;;;;;;;11.79;94.60;101853.91;5006065;28;20049;-73
2021/05/29 03:59:08;;;;;;;12.68;5.95;;;;;;;11.68;96.58;101860.84;5000246;28;20470;-74
2021/05/29 04:01:33;;;;;;;13.27;6.10;;;;;;;11.84;96.08;101848.31;5011957;28;20044;-73
2021/05/29 04:03:59;;;;;;;15.32;6.25;;;;;;;11.91;95.59;101847.75;5001836;28;20022;-74
2021/05/29 04:06:25;;;;;;;12.60;5.57;;;;;;;11.88;95.62;101851.94;5005271;28;20065;-74
2021/05/29 04:08:50;;;;;;;17.73;6.95;;;;;;;11.87;95.57;101847.63;5011594;28;20495;-76
2021/05/29 04:11:16;;;;;;;13.52;6.47;;;;;;;11.84;95.50;101867.22;4996550;28;20094;-73
2021/05/29 04:13:42;;;;;;;12.65;5.70;;;;;;;11.74;96.96;101862.22;5004744;28;20026;-74
2021/05/29 04:16:07;;;;;;;11.88;6.45;;;;;;;11.74;97.59;101851.44;5000186;28;20057;-74
2021/05/29 04:18:33;;;;;;;12.85;6.05;;;;;;;11.85;96.99;101866.06;5002952;28;20026;-74
2021/05/29 04:20:58;;;;;;;13.25;6.82;;;;;;;11.98;95.77;101856.88;5009747;28;20029;-74
2021/05/29 04:23:24;;;;;;;13.70;6.15;;;;;;;11.98;95.18;101864.22;5009466;28;20030;-74
2021/05/29 04:25:49;;;;;;;12.85;6.38;;;;;;;11.95;95.32;101854.06;4997631;28;20038;-74
2021/05/29 04:28:15;;;;;;;16.13;6.50;;;;;;;11.93;95.77;101861.69;5009038;28;20022;-73
2021/05/29 04:30:40;;;;;;;17.85;6.57;;;;;;;11.93;95.89;101857.09;5008843;28;20038;-74
2021/05/29 04:33:06;;;;;;;16.00;7.80;;;;;;;11.79;96.36;101860.09;5010540;28;20034;-74
2021/05/29 04:35:31;;;;;;;13.20;7.60;;;;;;;11.95;96.07;101868.34;5011035;28;20100;-76
2021/05/29 04:37:58;;;;;;;15.65;8.80;;;;;;;11.94;96.11;101871.41;5000703;28;20033;-73
2021/05/29 04:40:25;;;;;;;17.00;8.98;;;;;;;11.82;95.92;101868.66;5001441;28;20383;-75
2021/05/29 04:42:52;;;;;;;17.95;9.60;;;;;;;11.77;97.00;101869.63;5007089;28;20033;-73
2021/05/29 04:45:21;;;;;;;18.50;9.15;;;;;;;11.90;96.46;101865.09;5000936;28;20045;-74
2021/05/29 04:47:47;;;;;;;20.73;9.13;;;;;;;11.89;96.07;101868.88;4997299;28;20127;-74
2021/05/29 04:50:14;;;;;;;15.32;8.13;;;;;;;11.86;96.61;101870.38;5009496;28;20421;-74
2021/05/29 04:52:41;;;;;;;17.23;8.77;;;;;;;12.00;96.50;101872.75;5011271;28;20014;-73
2021/05/29 04:55:08;;;;;;;22.90;10.90;;;;;;;12.00;97.10;101876.22;5004371;28;20287;-74
2021/05/29 04:57:34;;;;;;;19.45;10.35;;;;;;;12.12;95.27;101870.06;5000024;28;20685;-73
2021/05/29 05:00:00;;;;;;;26.38;14.05;;;;;;;12.25;93.65;101872.47;4993025;28;20038;-73
2021/05/29 05:02:25;;;;;;;29.98;14.95;;;;;;;12.13;93.52;101872.47;4995831;28;20014;-74
2021/05/29 05:04:51;;;;;;;27.27;14.90;;;;;;;12.16;93.85;101873.69;4997988;28;20030;-74
2021/05/29 05:07:16;;;;;;;27.98;15.57;;;;;;;11.90;94.86;101875.88;5003955;28;20042;-74
2021/05/29 05:09:42;;;;;;;28.55;14.77;;;;;;;12.04;94.65;101877.16;5005691;28;20129;-74
2021/05/29 05:12:08;;;;;;;25.20;12.30;;;;;;;11.86;95.03;101874.97;5004188;28;20041;-74
2021/05/29 05:14:33;;;;;;;22.98;12.88;;;;;;;11.92;95.45;101863.63;5009019;28;20120;-73
2021/05/29 05:16:59;;;;;;;27.23;12.73;;;;;;;11.81;95.50;101872.50;5000491;28;20066;-75
2021/05/29 05:19:24;;;;;;;23.17;13.60;;;;;;;11.88;95.04;101873.53;4992456;28;20116;-74
2021/05/29 05:21:50;;;;;;;26.85;13.43;;;;;;;11.75;94.88;101880.78;5002336;28;20018;-73
2021/05/29 05:24:15;;;;;;;21.08;12.48;;;;;;;11.68;95.08;101882.44;5006537;28;20035;-74
2021/05/29 05:26:41;;;;;;;24.63;13.52;;;;;;;11.84;95.68;101882.59;5009813;28;20506;-75
2021/05/29 05:29:06;;;;;;;24.80;13.18;;;;;;;12.01;94.19;101885.94;4995802;28;20044;-75
2021/05/29 05:31:34;;;;;;;24.83;12.43;;;;;;;12.04;95.31;101889.88;4998344;28;20031;-79
2021/05/29 05:34:07;;;;;;;23.20;12.32;;;;;;;12.05;95.15;101889.53;5003129;28;20038;-73
2021/05/29 05:36:32;;;;;;;25.80;13.50;;;;;;;12.07;94.93;101890.00;5004709;28;20037;-74
2021/05/29 05:38:57;;;;;;;25.42;13.30;;;;;;;12.04;94.86;101896.03;5007047;28;20018;-77
2021/05/29 05:41:23;;;;;;;27.13;13.82;;;;;;;12.17;94.80;101894.19;5001959;28;20056;-73
2021/05/29 05:43:49;;;;;;;23.35;12.77;;;;;;;12.16;94.47;101904.19;5005936;28;20089;-73
2021/05/29 05:46:16;;;;;;;22.30;12.13;;;;;;;12.14;94.71;101903.72;5007544;28;20127;-74
2021/05/29 05:48:42;;;;;;;22.60;11.98;;;;;;;12.04;95.25;101897.97;5004191;28;20331;-75
2021/05/29 05:51:08;;;;;;;24.27;11.80;;;;;;;12.06;94.57;101903.84;4996575;28;20038;-75
2021/05/29 05:53:33;;;;;;;25.50;12.80;;;;;;;12.08;94.50;101904.28;4999869;28;20830;-74
2021/05/29 05:56:06;;;;;;;27.52;12.88;;;;;;;12.09;95.48;101895.06;5001592;28;20022;-75
2021/05/29 05:58:34;;;;;;;29.17;13.18;;;;;;;12.08;95.03;101898.88;5008883;28;20113;-74
2021/05/29 06:01:00;;;;;;;19.00;10.57;;;;;;;12.00;95.67;101900.53;5006209;28;20034;-74
2021/05/29 06:03:26;;;;;;;21.77;11.43;;;;;;;12.18;95.67;101914.66;5019055;28;20067;-76
2021/05/29 06:05:52;;;;;;;20.92;10.77;;;;;;;12.14;95.21;101903.72;5002636;28;20024;-73
2021/05/29 06:08:19;;;;;;;25.17;11.23;;;;;;;12.15;95.23;101899.13;5011827;28;20084;-74
2021/05/29 06:10:45;;;;;;;18.20;9.88;;;;;;;12.15;95.91;101891.81;5001938;28;20030;-78
2021/05/29 06:13:15;;;;;;;18.45;10.25;;;;;;;12.16;95.71;101909.59;5008462;28;20072;-75
2021/05/29 06:21:09;;;;;;;20.27;9.98;;;;;;;12.27;95.25;101912.66;5003519;28;20129;-76
2021/05/29 06:23:35;;;;;;;19.70;9.52;;;;;;;12.25;95.49;101912.97;5005205;28;20117;-75
2021/05/29 06:26:02;;;;;;;18.42;9.45;;;;;;;12.33;95.05;101919.44;5000567;28;20037;-74
2021/05/29 06:28:28;;;;;;;16.73;9.38;;;;;;;12.33;94.14;101922.13;5004886;28;20490;-75
2021/05/29 06:30:53;;;;;;;17.88;7.78;;;;;;;12.25;94.88;101926.47;5010680;28;20038;-75
2021/05/29 06:33:19;;;;;;;16.83;8.30;;;;;;;12.38;94.53;101925.41;5004348;28;20036;-73
2021/05/29 06:35:44;;;;;;;16.05;7.88;;;;;;;12.35;94.22;101922.59;5005275;28;20129;-74
2021/05/29 06:38:10;;;;;;;15.38;7.95;;;;;;;12.35;94.47;101930.69;5005151;28;20080;-75
2021/05/29 06:40:36;;;;;;;18.00;8.23;;;;;;;12.39;94.20;101936.97;4990216;28;20044;-74
2021/05/29 06:43:01;;;;;;;12.98;7.80;;;;;;;12.35;94.10;101938.78;5001497;28;20034;-74
2021/05/29 06:45:27;;;;;;;15.88;7.25;;;;;;;12.32;93.97;101932.13;5008589;28;20046;-78
2021/05/29 06:47:52;;;;;;;14.75;7.28;;;;;;;12.26;94.83;101941.56;5004355;28;20061;-74
2021/05/29 06:50:18;;;;;;;16.20;7.15;;;;;;;12.49;93.82;101941.94;5002225;28;20029;-76
2021/05/29 06:52:48;;;;;;;18.25;8.30;;;;;;;12.41;94.06;101938.22;5005619;28;20565;-73
2021/05/29 07:00:42;;;;;;;12.05;6.10;;;;;;;12.46;92.80;101945.34;4999250;28;20661;-74
2021/05/29 07:03:07;;;;;;;10.45;5.68;;;;;;;12.61;92.29;101952.78;5001674;28;20113;-75
2021/05/29 07:05:33;;;;;;;12.43;6.32;;;;;;;12.54;92.74;101950.63;5006112;28;20384;-73
2021/05/29 07:07:58;;;;;;;15.38;6.30;;;;;;;12.55;92.63;101940.63;5003521;28;20038;-74
2021/05/29 07:10:24;;;;;;;13.77;6.63;;;;;;;12.54;92.90;101947.16;5006036;28;20057;-74
2021/05/29 07:12:50;;;;;;;13.57;6.45;;;;;;;12.59;92.14;101944.22;5014584;28;20542;-73
2021/05/29 07:15:16;;;;;;;18.65;6.05;;;;;;;12.58;92.10;101956.16;5005190;28;20084;-75
2021/05/29 07:17:43;;;;;;;10.30;6.07;;;;;;;12.53;92.18;101959.06;5002467;28;20033;-76
2021/05/29 07:20:10;;;;;;;10.88;5.30;;;;;;;12.54;92.42;101956.03;5012215;28;20038;-73
2021/05/29 07:22:36;;;;;;;7.82;4.70;;;;;;;12.59;92.54;101957.72;4996917;28;20113;-75
2021/05/29 07:25:07;;;;;;;12.23;5.10;;;;;;;12.73;91.26;101962.81;5005373;28;20057;-74
2021/05/29 07:27:32;;;;;;;9.85;4.97;;;;;;;12.73;90.98;101958.22;5010207;28;20080;-74
2021/05/29 07:29:59;;;;;;;11.45;4.95;;;;;;;12.80;91.36;101963.84;5006787;28;20445;-73
2021/05/29 07:32:25;;;;;;;11.32;4.97;;;;;;;12.70;90.89;101965.06;5000352;28;20111;-74
2021/05/29 07:34:52;;;;;;;10.15;4.90;;;;;;;12.72;91.23;101966.66;5005941;28;20073;-74
2021/05/29 07:37:17;;;;;;;9.45;4.82;;;;;;;12.74;91.48;101967.88;5003114;28;20049;-73
2021/05/29 07:39:43;;;;;;;7.00;4.65;;;;;;;12.74;90.97;101972.53;5001533;28;20034;-73
2021/05/29 07:42:08;;;;;;;9.70;5.13;;;;;;;12.79;91.40;101969.59;5008653;28;20037;-74
2021/05/29 07:44:34;;;;;;;8.35;4.55;;;;;;;12.73;91.09;101969.03;5007492;28;20034;-74
2021/05/29 07:46:59;;;;;;;11.07;4.63;;;;;;;12.86;91.23;101984.13;4999020;28;20579;-74
2021/05/29 07:49:25;;;;;;;11.45;5.35;;;;;;;12.90;90.63;101985.03;5003973;28;20501;-74
2021/05/29 07:51:51;;;;;;;7.50;4.47;;;;;;;12.82;91.23;101982.41;4998729;28;20057;-74
2021/05/29 07:54:17;;;;;;;9.63;4.72;;;;;;;12.76;90.61;101983.75;5011488;28;20030;-74
2021/05/29 07:56:42;;;;;;;9.20;4.68;;;;;;;12.88;90.47;101981.88;5000162;28;20064;-73
2021/05/29 07:59:13;;;;;;;11.30;4.32;;;;;;;12.91;90.70;101977.72;5011183;28;20551;-73
2021/05/29 08:01:39;;;;;;;6.07;4.13;;;;;;;13.01;90.24;101983.44;5003438;28;20445;-76
2021/05/29 08:04:04;;;;;;;9.75;4.13;;;;;;;13.08;89.95;101980.22;5006992;28;20034;-75
2021/05/29 08:06:30;;;;;;;9.90;4.38;;;;;;;13.06;89.53;101982.47;5004995;28;20038;-74
2021/05/29 08:08:56;;;;;;;8.93;4.45;;;;;;;13.19;89.02;101982.13;4996346;28;20034;-74
2021/05/29 08:11:22;;;;;;;8.35;4.78;;;;;;;13.19;89.20;101984.03;4996578;28;20030;-75
2021/05/29 08:13:52;;;;;;;8.85;4.43;;;;;;;13.08;90.08;101986.44;5007800;28;20041;-74
2021/05/29 08:16:20;;;;;;;5.40;4.37;;;;;;;13.18;90.33;101991.34;5006064;28;20045;-75
2021/05/29 08:18:45;;;;;;;8.38;4.32;;;;;;;13.28;90.07;101990.91;5008816;28;20300;-74
2021/05/29 08:21:11;;;;;;;10.75;4.28;;;;;;;13.31;89.00;101984.84;5003558;28;20034;-74
2021/05/29 08:23:38;;;;;;;9.27;4.60;;;;;;;13.47;87.80;101990.34;5005318;28;20406;-74
2021/05/29 08:26:04;;;;;;;8.10;4.10;;;;;;;13.45;87.93;101998.00;5000417;28;20557;-74
2021/05/29 08:28:29;;;;;;;9.02;4.07;;;;;;;13.48;86.64;101995.41;4992974;28;20034;-73
2021/05/29 08:30:55;;;;;;;8.10;4.07;;;;;;;13.53;87.05;101991.66;5003377;28;20037;-75
2021/05/29 08:33:20;;;;;;;7.75;4.32;;;;;;;13.71;86.36;101998.38;5007969;28;20057;-76
2021/05/29 08:35:46;;;;;;;8.43;4.45;;;;;;;13.76;85.98;102003.59;5011250;28;20038;-75
2021/05/29 08:38:11;;;;;;;6.20;4.00;;;;;;;13.66;85.60;102004.06;5007843;28;20565;-73
2021/05/29 08:40:37;;;;;;;13.13;4.72;;;;;;;13.61;85.79;102001.56;5000268;28;20092;-74
2021/05/29 08:43:03;;;;;;;11.70;4.10;;;;;;;13.61;86.64;102004.28;5009853;28;20399;-73
2021/05/29 08:45:29;;;;;;;7.93;4.03;;;;;;;13.72;85.81;102008.09;5011220;28;20398;-74
2021/05/29 08:47:57;;;;;;;7.03;4.07;;;;;;;13.74;85.35;102011.25;5005573;28;20433;-75
2021/05/29 08:50:23;;;;;;;8.80;4.20;;;;;;;13.87;84.78;102004.69;5012889;28;20482;-75
2021/05/29 08:52:49;;;;;;;7.00;4.10;;;;;;;14.05;84.62;102003.25;5006330;28;20038;-77
2021/05/29 08:55:15;;;;;;;8.45;3.92;;;;;;;14.06;82.57;102004.84;5003700;28;20044;-78
2021/05/29 08:57:41;;;;;;;12.32;4.85;;;;;;;14.18;83.24;102012.13;5003940;28;20062;-76
2021/05/29 09:00:23;;;;;;;8.23;4.35;;;;;;;14.30;82.47;102009.41;4991370;28;20053;-74
2021/05/29 09:02:57;;;;;;;;;;;;;;;14.38;83.03;102019.31;4999826;28;20030;-74
2021/05/29 09:05:38;;;;;;;7.35;3.88;;;;;;;14.42;82.35;102006.59;5003018;28;19957;-74
2021/05/29 09:08:05;;;;;;;7.30;4.15;;;;;;;14.51;82.89;102009.97;5011301;28;20034;-74
2021/05/29 09:10:34;;;;;;;12.88;4.35;;;;;;;14.52;81.24;102018.88;5010614;28;20026;-74
2021/05/29 09:13:14;;;;;;;7.50;4.18;;;;;;;14.66;81.57;102013.81;5010624;28;20494;-74
2021/05/29 09:16:01;;;;;;;7.90;3.97;;;;;;;14.60;79.80;102001.66;5010765;28;20048;-74
2021/05/29 09:18:38;;;;;;;5.65;3.67;;;;;;;14.89;80.20;102010.16;4994586;28;20030;-74
2021/05/29 09:21:33;;;;;;;4.93;4.20;;;;;;;15.17;79.37;102004.63;5006939;28;20045;-74
2021/05/29 09:24:12;;;;;;;5.50;3.67;;;;;;;15.36;78.17;102012.84;5003408;28;20049;-76
2021/05/29 09:26:54;;;;;;;7.82;3.88;;;;;;;15.55;77.93;102014.81;5006646;28;20029;-74
2021/05/29 09:29:29;;;;;;;6.28;4.20;;;;;;;15.37;77.28;102009.75;4995912;28;20027;-73
2021/05/29 09:31:57;;;;;;;6.80;4.22;;;;;;;15.41;76.24;101998.97;5008340;28;20026;-78
2021/05/29 09:34:40;;;;;;;11.32;3.90;;;;;;;15.18;77.40;102003.47;5000962;28;20070;-75
2021/05/29 09:37:08;;;;;;;5.80;3.53;;;;;;;15.45;77.72;102009.97;5008034;28;20168;-74
2021/05/29 09:39:37;;;;;;;7.28;3.90;;;;;;;15.51;77.04;102012.03;5011396;28;20029;-75
2021/05/29 09:42:03;;;;;;;5.45;3.63;;;;;;;15.58;76.92;102014.91;5005481;28;20030;-75
2021/05/29 09:44:30;;;;;;;6.80;4.07;;;;;;;15.53;77.56;102011.69;5035776;22;20508;-73
2021/05/29 09:46:58;;;;;;;5.72;3.45;;;;;;;15.52;77.13;102024.50;5008895;28;20041;-72
2021/05/29 09:49:49;;;;;;;5.75;3.60;;;;;;;15.50;76.92;102023.25;5000711;28;20526;-72
2021/05/29 09:52:27;;;;;;;6.68;4.28;;;;;;;15.66;76.94;102016.63;5005825;28;20026;-72
2021/05/29 09:54:54;;;;;;;9.50;4.38;;;;;;;15.50;76.73;102024.06;4991046;28;20590;-72
2021/05/29 09:57:20;;;;;;;6.75;3.70;;;;;;;15.64;74.39;102016.19;4994010;28;20022;-72
2021/05/29 10:00:05;;;;;;;6.85;3.50;;;;;;;15.85;73.73;102022.09;4993768;28;20536;-72
2021/05/29 10:02:32;;;;;;;9.38;3.92;;;;;;;15.89;72.29;102022.94;4984279;28;20037;-71
2021/05/29 10:04:58;;;;;;;8.10;4.13;;;;;;;15.89;72.29;102009.38;4988226;28;20046;-72
2021/05/29 10:07:37;;;;;;;5.43;3.42;;;;;;;16.05;74.29;102015.53;4994181;28;20034;-72
2021/05/29 10:10:02;;;;;;;9.63;3.55;;;;;;;16.32;74.88;102008.28;4983850;28;20038;-72
2021/05/29 10:12:28;;;;;;;8.50;4.13;;;;;;;16.43;75.63;102013.91;4993887;28;20022;-72
2021/05/29 10:14:53;;;;;;;6.70;3.78;;;;;;;16.52;74.92;102014.50;4994388;28;20072;-72
2021/05/29 10:17:19;;;;;;;4.97;3.40;;;;;;;16.71;73.55;102017.16;4985269;28;20052;-72
2021/05/29 10:19:46;;;;;;;8.85;4.18;;;;;;;16.84;70.72;102016.63;4992589;28;20030;-72
2021/05/29 10:22:14;;;;;;;8.43;4.50;;;;;;;16.77;72.13;102015.72;4987868;28;20037;-72
2021/05/29 10:24:40;;;;;;;7.60;3.95;;;;;;;16.88;72.62;102022.13;4990330;28;20030;-72
2021/05/29 10:27:11;;;;;;;6.85;4.03;;;;;;;16.91;71.45;102021.41;4994049;28;20073;-72
2021/05/29 10:29:38;;;;;;;5.43;3.60;;;;;;;16.98;69.67;102022.31;4992124;28;20038;-72
2021/05/29 10:32:20;;;;;;;6.93;3.70;;;;;;;17.08;68.46;102026.34;4987706;28;20046;-72
2021/05/29 10:34:59;;;;;;;7.57;3.10;;;;;;;17.21;67.05;102013.34;4986191;28;20034;-71
2021/05/29 10:37:38;;;;;;;6.38;3.45;;;;;;;17.17;67.75;102024.16;4993691;28;20034;-73
2021/05/29 10:40:31;;;;;;;5.13;3.15;;;;;;;17.35;69.75;102019.78;4986663;28;20054;-72
2021/05/29 10:43:02;;;;;;;5.70;3.22;;;;;;;17.35;67.35;102016.25;4993875;28;20058;-73
2021/05/29 10:45:29;;;;;;;4.38;3.42;;;;;;;17.22;66.87;102012.97;4993398;28;20040;-72
2021/05/29 10:48:14;;;;;;;6.95;3.35;;;;;;;17.24;67.47;102012.59;4987563;28;20121;-72
2021/05/29 10:53:42;;;;;;;8.07;3.78;;;;;;;17.76;66.14;102013.38;4989760;28;20039;-72
2021/05/29 10:56:16;;;;;;;5.18;3.25;;;;;;;18.07;66.26;102014.13;4987360;28;20038;-72
2021/05/29 10:59:02;;;;;;;7.60;3.65;;;;;;;18.32;64.31;102024.16;4993322;28;20462;-72
2021/05/29 11:04:11;;;;;;;7.00;3.50;;;;;;;18.81;65.22;102018.44;4987443;28;20097;-72
2021/05/29 11:06:38;;;;;;;9.15;3.88;;;;;;;18.98;58.60;102012.34;4989006;28;20515;-72
2021/05/29 11:09:06;;;;;;;8.60;3.53;;;;;;;19.37;59.54;102027.13;4992379;28;20463;-72
2021/05/29 11:11:38;;;;;;;7.70;3.28;;;;;;;19.98;58.77;102015.31;4969469;28;20035;-72
2021/05/29 11:14:07;;;;;;;5.03;3.25;;;;;;;20.46;56.94;102024.84;4984799;28;20061;-72
2021/05/29 11:16:54;;;;;;;4.85;2.92;;;;;;;20.71;58.07;102013.97;4989738;28;20062;-72
2021/05/29 11:19:21;;;;;;;4.72;3.33;;;;;;;21.17;55.49;102013.97;4980797;28;20038;-72
2021/05/29 11:22:05;;;;;;;7.30;3.20;;;;;;;21.14;55.54;102009.25;4992770;28;20034;-71
2021/05/29 11:24:39;;;;;;;7.15;3.80;;;;;;;20.89;53.87;102009.25;4989114;28;20077;-72
2021/05/29 11:27:06;;;;;;;7.53;3.58;;;;;;;20.75;55.31;102009.25;4993386;28;20039;-71
2021/05/29 11:29:52;;;;;;;6.32;4.00;;;;;;;20.29;55.45;102008.41;4991818;28;20026;-72
2021/05/29 11:35:31;;;;;;;7.32;3.58;;;;;;;19.66;56.46;102012.44;4989994;28;20038;-71
2021/05/29 11:38:03;;;;;;;;;;;;;;;19.61;56.53;102007.34;4993212;28;20041;-71
2021/05/29 11:40:59;;;;;;;5.20;3.75;;;;;;;19.90;56.84;102012.94;4989714;28;19913;-72